Latest Weather Observations for Cocos Island

IDW60801

Issued at 7:13 am WST Wednesday 16 January 2019 (issued every 10 minutes, with the page automatically refreshed every 10 minutes)

About weather observations | Map of weather stations | Latest weather observations for WA | Other Formats
Station Details ID: 200284 Name: COCOS ISLAND AIRPORT Lat: -12.19 Lon: 96.83 Height: 3.0 m
Data from the previous 72 hours. | See also: Recent months at Cocos Island
Date/Time
WST
Temp
°C
App
Temp
°C
Dew
Point
°C
Rel
Hum
%
Delta-T
°C
Wind Press
QNH
hPa
Press
MSL
hPa
Rain since
9am
mm
Dir  Spd
km/h
Gust
km/h
Spd
kts
Gust
kts
16/07:00am 26.3 25.5 19.3 65 4.5 SSE 22 32 12 17 1010.7 1010.7 0.2
16/06:30am 26.5 25.8 19.5 65 4.5 SSE 22 30 12 16 1010.4 1010.4 0.2
16/06:00am 26.5 26.4 19.9 67 4.3 SSE 20 28 11 15 1010.2 1010.2 0.2
16/05:30am 26.4 26.5 19.9 67 4.2 SSE 19 24 10 13 1010.1 1010.1 0.2
16/05:00am 26.6 26.3 19.1 63 4.8 SSE 19 26 10 14 1010.3 1010.3 0.2
16/04:30am 26.7 26.6 19.6 65 4.6 SE 19 26 10 14 1010.6 1010.6 0.2
16/04:00am 26.5 26.7 20.1 68 4.2 SSE 19 24 10 13 1010.7 1010.7 0.2
16/03:30am 26.6 28.1 21.2 72 3.6 SSE 15 20 8 11 1011.0 1011.0 0.2
16/03:00am 26.7 27.2 20.9 70 3.8 SE 19 24 10 13 1011.2 1011.2 0.2
16/02:30am 26.8 26.8 19.7 65 4.6 SSE 19 30 10 16 1011.5 1011.5 0.2
16/02:00am 26.6 26.9 20.3 68 4.1 SE 19 24 10 13 1011.8 1011.8 0.2
16/01:30am 27.0 26.6 19.4 63 4.9 SE 20 26 11 14 1012.4 1012.4 0.2
16/01:00am 26.8 26.1 19.5 64 4.7 SE 22 30 12 16 1012.8 1012.8 0.2
16/12:30am 27.0 25.9 20.3 66 4.4 SE 26 35 14 19 1013.1 1013.1 0.2
16/12:00am 27.1 26.2 19.9 64 4.7 SE 24 32 13 17 1013.0 1013.0 0.2
 
Date/Time
WST
Temp
°C
App
Temp
°C
Dew
Point
°C
Rel
Hum
%
Delta-T
°C
Wind Press
QNH
hPa
Press
MSL
hPa
Rain since
9am
mm
Dir  Spd
km/h
Gust
km/h
Spd
kts
Gust
kts
15/11:30pm 27.1 26.7 20.9 69 4.1 SE 24 32 13 17 1013.0 1013.0 0.2
15/11:00pm 27.2 25.9 20.7 67 4.3 SE 28 33 15 18 1012.8 1012.8 0.2
15/10:30pm 27.3 27.4 20.3 65 4.6 SSE 20 30 11 16 1012.6 1012.6 0.2
15/10:00pm 27.1 27.2 20.4 66 4.4 SE 20 26 11 14 1012.3 1012.3 0.2
15/09:30pm 27.1 26.5 20.6 67 4.3 SE 24 30 13 16 1012.1 1012.1 0.2
15/09:00pm 27.1 27.0 21.4 71 3.8 SE 24 30 13 16 1011.9 1011.9 0.2
15/08:30pm 27.3 27.3 21.0 68 4.2 SE 22 32 12 17 1011.5 1011.5 0.2
15/08:00pm 27.4 27.5 21.2 69 4.1 SE 22 30 12 16 1011.3 1011.3 0.2
15/07:30pm 27.6 26.4 21.5 69 4.1 SE 30 37 16 20 1010.9 1010.9 0.2
15/07:00pm 28.2 27.1 20.3 62 5.2 SE 26 35 14 19 1010.7 1010.7 0.2
15/06:30pm 28.7 27.0 20.5 61 5.4 SE 30 39 16 21 1010.3 1010.3 0.2
15/06:00pm 28.2 26.8 21.1 65 4.7 SE 30 41 16 22 1010.1 1010.1 0.2
15/05:30pm 29.3 28.3 21.2 61 5.4 SE 28 35 15 19 1010.1 1010.1 0.2
15/05:00pm 29.6 28.8 21.6 62 5.4 SE 28 35 15 19 1010.3 1010.3 0.2
15/04:30pm 30.3 30.0 21.9 60 5.7 SE 26 35 14 19 1010.7 1010.7 0.2
15/04:00pm 29.7 28.1 20.7 58 6.0 SE 30 39 16 21 1010.9 1010.9 0.2
15/03:30pm 28.7 28.7 22.4 68 4.3 SE 26 41 14 22 1011.1 1011.1 0.2
15/03:00pm 30.1 29.0 21.1 58 6.0 SE 28 32 15 17 1011.5 1011.5 0.2
15/02:30pm 30.3 29.6 21.0 57 6.2 SE 26 33 14 18 1011.7 1011.7 0.2
15/02:00pm 29.8 28.8 21.3 60 5.7 SE 28 37 15 20 1011.9 1011.9 0.0
15/01:30pm 29.4 28.6 21.7 63 5.2 SE 28 37 15 20 1012.0 1012.0 0.0
15/01:00pm 29.1 27.3 20.3 59 5.8 SE 30 39 16 21 1012.3 1012.3 0.0
15/12:30pm 29.8 28.6 20.9 59 5.9 SE 28 37 15 20 1012.5 1012.5 0.0
15/12:00pm 29.6 28.2 20.4 57 6.1 SE 28 37 15 20 1012.8 1012.8 0.0
15/11:30am 29.8 28.2 20.8 58 6.0 SE 30 37 16 20 1012.9 1012.9 0.0
15/11:00am 28.9 27.9 20.4 60 5.6 SE 26 37 14 20 1012.7 1012.7 0.0
15/10:30am 28.6 26.3 20.1 60 5.6 SE 32 39 17 21 1012.7 1012.7 0.0
15/10:00am 28.7 28.5 21.2 64 5.0 SE 24 32 13 17 1012.6 1012.6 0.0
15/09:30am 28.4 27.3 21.0 64 4.9 SE 28 35 15 19 1012.5 1012.5 0.0
15/09:00am 27.9 26.0 21.0 66 4.6 SE 32 39 17 21 1012.6 1012.6 0.0
15/08:30am 27.6 26.6 21.3 68 4.2 SE 28 43 15 23 1012.5 1012.5 0.0
15/08:00am 26.9 25.5 20.5 68 4.2 SE 28 39 15 21 1012.3 1012.3 0.0
15/07:30am 26.7 25.4 19.8 66 4.5 SE 26 37 14 20 1011.8 1011.8 0.0
15/07:23am 26.5 25.6 20.6 70 3.9 SE 26 33 14 18 1011.7 1011.7 0.0
15/07:02am 26.6 26.0 21.2 72 3.6 SE 26 33 14 18 1011.5 1011.5 0.0
15/07:00am 26.6 25.8 20.8 70 3.8 SE 26 35 14 19 1011.5 1011.5 0.0
15/06:51am 26.7 26.1 21.3 72 3.6 SE 26 37 14 20 1011.3 1011.3 0.0
15/06:30am 26.5 26.4 20.7 70 3.8 SE 22 32 12 17 1011.1 1011.1 0.0
15/06:14am 26.5 26.6 21.2 72 3.5 SE 22 32 12 17 1011.0 1011.0 0.0
15/06:00am 26.6 26.6 21.0 71 3.7 SE 22 32 12 17 1010.9 1010.9 0.0
15/05:30am 26.6 26.0 20.5 69 4.0 SE 24 35 13 19 1010.8 1010.8 0.0
15/05:00am 26.7 26.6 21.4 72 3.5 SE 24 33 13 18 1010.7 1010.7 0.0
15/04:30am 26.8 26.8 21.7 73 3.4 SE 24 32 13 17 1011.0 1011.0 0.0
15/04:00am 26.7 26.8 21.8 74 3.3 SE 24 32 13 17 1010.9 1010.9 0.0
15/03:30am 26.9 26.9 21.7 73 3.5 SE 24 32 13 17 1011.1 1011.1 0.0
15/03:00am 26.9 26.7 21.3 71 3.7 SE 24 32 13 17 1011.4 1011.4 0.0
15/02:30am 27.0 26.6 21.6 72 3.6 SE 26 35 14 19 1011.7 1011.7 0.0
15/02:00am 27.2 26.7 21.5 71 3.8 SE 26 33 14 18 1012.1 1012.1 0.0
15/01:30am 27.3 27.4 21.9 72 3.6 SE 24 33 13 18 1012.4 1012.4 0.0
15/01:00am 27.4 27.5 21.9 72 3.7 SE 24 35 13 19 1012.5 1012.5 0.0
15/12:30am 27.4 26.6 21.7 71 3.8 SE 28 35 15 19 1012.8 1012.8 0.0
15/12:00am 27.5 27.1 21.7 70 3.9 SE 26 35 14 19 1013.0 1013.0 0.0
 
Date/Time
WST
Temp
°C
App
Temp
°C
Dew
Point
°C
Rel
Hum
%
Delta-T
°C
Wind Press
QNH
hPa
Press
MSL
hPa
Rain since
9am
mm
Dir  Spd
km/h
Gust
km/h
Spd
kts
Gust
kts
14/11:30pm 27.5 27.3 21.2 68 4.2 ESE 24 35 13 19 1013.1 1013.1 0.0
14/11:00pm 27.6 27.3 21.1 67 4.3 SE 24 32 13 17 1013.0 1013.0 0.0
14/10:30pm 27.7 27.3 21.6 69 4.1 SE 26 33 14 18 1012.9 1012.9 0.0
14/10:00pm 27.7 26.9 21.7 70 4.0 SE 28 35 15 19 1012.7 1012.7 0.0
14/09:30pm 27.7 26.4 21.4 68 4.2 SE 30 39 16 21 1012.3 1012.3 0.0
14/09:00pm 27.8 28.2 22.5 73 3.6 SE 24 30 13 16 1012.0 1012.0 0.0
14/08:30pm 27.8 26.2 21.5 68 4.2 SE 32 39 17 21 1011.8 1011.8 0.0
14/08:00pm 27.8 27.7 22.3 72 3.7 SE 26 35 14 19 1011.3 1011.3 0.0
14/07:30pm 27.9 27.4 22.1 70 3.9 SE 28 37 15 20 1010.8 1010.8 0.0
14/07:00pm 28.6 27.5 21.8 66 4.6 SE 30 37 16 20 1010.4 1010.4 0.0
14/06:30pm 28.4 27.9 22.2 69 4.2 SE 28 35 15 19 1010.2 1010.2 0.0
14/06:00pm 29.4 28.5 22.2 65 4.9 SE 30 37 16 20 1010.0 1010.0 0.0
14/05:30pm 29.0 27.6 21.9 65 4.8 SE 32 39 17 21 1009.9 1009.9 0.0
14/05:00pm 29.4 28.6 21.7 63 5.2 SE 28 37 15 20 1009.8 1009.8 0.0
14/04:30pm 29.2 27.7 20.9 61 5.5 SE 30 41 16 22 1010.0 1010.0 0.0
14/04:00pm 29.4 28.3 21.7 63 5.2 SE 30 37 16 20 1010.3 1010.3 0.0
14/03:30pm 30.3 29.4 21.4 59 6.0 SE 28 39 15 21 1010.6 1010.6 0.0
14/03:00pm 29.7 28.7 21.3 60 5.6 SE 28 37 15 20 1010.8 1010.8 0.0
14/02:30pm 30.1 29.9 22.1 62 5.4 SE 26 33 14 18 1011.0 1011.0 0.0
14/02:00pm 30.4 29.7 21.8 60 5.8 SE 28 37 15 20 1011.1 1011.1 0.0
14/01:30pm 29.7 27.9 20.3 57 6.2 SE 30 39 16 21 1011.2 1011.2 0.0
14/01:00pm 29.6 28.5 21.1 60 5.7 SE 28 39 15 21 1011.5 1011.5 0.0
14/12:30pm 29.1 27.1 20.8 61 5.5 SE 32 39 17 21 1012.1 1012.1 0.0
14/12:00pm 29.6 28.2 21.1 60 5.7 SE 30 39 16 21 1012.4 1012.4 0.0
14/11:30am 29.4 27.5 21.0 60 5.6 SE 32 43 17 23 1012.4 1012.4 0.0
14/11:00am 29.5 28.5 21.3 61 5.5 SE 28 37 15 20 1012.5 1012.5 0.0
14/10:30am 28.8 27.1 20.6 61 5.4 SE 30 37 16 20 1012.5 1012.5 0.0
14/10:00am 28.4 26.0 20.0 60 5.5 SE 32 41 17 22 1012.8 1012.8 0.0
14/09:30am 28.3 27.3 21.2 65 4.7 SE 28 37 15 20 1012.7 1012.7 0.0
14/09:00am 28.0 27.1 20.7 64 4.8 SE 26 37 14 20 1012.6 1012.6 0.0
14/08:30am 27.8 26.9 19.8 61 5.2 SE 24 35 13 19 1012.6 1012.6 0.0
14/08:00am 27.1 26.3 20.9 69 4.1 SE 26 35 14 19 1012.5 1012.5 0.0
14/07:30am 26.9 27.3 21.8 73 3.4 SE 22 32 12 17 1012.0 1012.0 0.0
14/07:00am 26.8 26.2 20.6 69 4.1 SE 24 32 13 17 1011.8 1011.8 0.0
14/06:30am 26.9 27.1 21.3 71 3.7 SE 22 32 12 17 1011.3 1011.3 0.0
14/06:00am 27.0 26.5 21.4 71 3.7 SE 26 37 14 20 1011.1 1011.1 0.0
14/05:30am 27.0 27.0 21.6 72 3.6 SE 24 33 13 18 1010.9 1010.9 0.0
14/05:00am 27.2 27.7 22.0 73 3.5 SE 22 33 12 18 1011.0 1011.0 0.0
14/04:30am 27.0 27.7 21.6 72 3.6 SE 20 28 11 15 1011.2 1011.2 0.0
14/04:00am 27.3 27.6 21.6 71 3.8 SE 22 30 12 16 1011.6 1011.6 0.0
14/03:30am 27.2 27.4 22.1 73 3.4 SE 24 32 13 17 1011.8 1011.8 0.0
14/03:00am 27.5 27.4 22.3 73 3.5 SE 26 32 14 17 1011.9 1011.9 0.0
14/02:30am 27.5 28.0 22.6 74 3.3 SE 24 32 13 17 1011.9 1011.9 0.0
14/02:03am 27.7 27.6 22.2 72 3.7 SE 26 33 14 18 1012.1 1012.1 0.0
14/02:00am 27.6 27.7 22.6 74 3.4 SE 26 33 14 18 1012.1 1012.1 0.0
14/01:30am 27.7 28.1 22.5 73 3.5 SE 24 32 13 17 1012.3 1012.3 0.0
14/01:13am 27.8 27.3 22.2 71 3.8 SE 28 33 15 18 1012.4 1012.4 0.0
14/01:00am 27.7 27.6 22.2 72 3.7 SE 26 33 14 18 1012.6 1012.6 0.0
14/12:30am 27.8 27.4 22.3 72 3.7 SE 28 35 15 19 1012.9 1012.9 0.0
14/12:00am 27.8 27.8 23.0 75 3.3 SE 28 37 15 20 1013.0 1013.0 0.0
 
Date/Time
WST
Temp
°C
App
Temp
°C
Dew
Point
°C
Rel
Hum
%
Delta-T
°C
Wind Press
QNH
hPa
Press
MSL
hPa
Rain since
9am
mm
Dir  Spd
km/h
Gust
km/h
Spd
kts
Gust
kts
13/11:30pm 27.8 28.4 22.8 74 3.4 SE 24 35 13 19 1012.7 1012.7 0.0
13/11:00pm 28.0 27.4 22.7 73 3.6 SE 30 39 16 21 1012.7 1012.7 0.0
13/10:30pm 28.1 27.8 22.5 71 3.8 SE 28 33 15 18 1012.5 1012.5 0.0
13/10:00pm 28.1 27.5 22.6 72 3.7 SE 30 35 16 19 1012.4 1012.4 0.0
13/09:30pm 28.3 28.7 23.2 74 3.5 SE 26 33 14 18 1012.2 1012.2 0.0
13/09:00pm 28.1 28.1 23.1 74 3.4 ESE 28 37 15 20 1011.9 1011.9 0.0
13/08:30pm 28.2 28.6 23.1 74 3.5 ESE 26 35 14 19 1011.7 1011.7 0.0
13/08:00pm 28.1 27.8 22.6 72 3.7 ESE 28 35 15 19 1011.3 1011.3 0.0
13/07:30pm 28.7 30.2 23.0 71 3.9 ESE 20 30 11 16 1011.1 1011.1 0.0
13/07:00pm 28.8 29.6 23.1 71 3.9 ESE 24 33 13 18 1010.9 1010.9 0.0
13/06:30pm 29.3 29.7 23.2 69 4.2 ESE 26 33 14 18 1010.8 1010.8 0.0
13/06:00pm 29.0 29.2 22.7 69 4.3 ESE 26 35 14 19 1010.6 1010.6 0.0
13/05:30pm 29.6 30.5 22.7 66 4.7 ESE 22 33 12 18 1010.6 1010.6 0.0
13/05:00pm 29.8 29.9 23.3 68 4.5 ESE 28 35 15 19 1010.8 1010.8 0.0
13/04:30pm 29.8 29.7 22.9 66 4.7 SE 28 33 15 18 1011.0 1011.0 0.0
13/04:00pm 29.6 30.3 22.9 67 4.6 ESE 24 33 13 18 1011.4 1011.4 0.0
13/03:30pm 30.4 30.4 23.1 65 5.0 SE 28 33 15 18 1011.7 1011.7 0.0
13/03:00pm 30.4 30.6 23.4 66 4.8 SE 28 37 15 20 1012.0 1012.0 0.0
13/02:30pm 29.8 30.1 22.9 66 4.7 SE 26 35 14 19 1012.3 1012.3 0.0
13/02:00pm 29.7 29.4 22.5 65 4.9 SE 28 35 15 19 1012.5 1012.5 0.0
13/01:30pm 29.7 29.9 22.8 66 4.7 SE 26 33 14 18 1012.9 1012.9 0.0
13/01:00pm 30.0 30.3 23.0 66 4.8 SE 26 33 14 18 1013.1 1013.1 0.0
13/12:30pm 29.8 29.5 21.9 62 5.3 SE 26 33 14 18 1013.5 1013.5 0.0
13/12:00pm 29.6 29.9 22.9 67 4.6 SE 26 33 14 18 1013.4 1013.4 0.0
13/11:30am 29.5 29.8 22.3 65 4.9 SE 24 32 13 17 1013.6 1013.6 0.0
13/11:00am 29.2 29.7 22.7 68 4.4 ESE 24 32 13 17 1013.7 1013.7 0.0
13/10:30am 28.5 29.3 22.4 69 4.1 SE 22 26 12 14 1013.7 1013.7 0.0
13/10:00am 28.9 29.4 22.6 69 4.3 SE 24 32 13 17 1013.8 1013.8 0.0
13/09:30am 28.6 29.5 22.7 70 4.0 SE 22 30 12 16 1013.3 1013.3 0.0
13/09:00am 28.2 29.3 22.3 70 4.0 SE 20 26 11 14 1013.2 1013.2 0.0

Other Formats:

Comma delimited format used in spreadsheet applications
http://www.bom.gov.au/fwo/IDW60801/IDW60801.96996.axf

JavaScript Object Notation format (JSON) in row-major order
http://www.bom.gov.au/fwo/IDW60801/IDW60801.96996.json